createdAt,value
2019-01-25T00:00:35.894Z,3.30
2019-01-25T00:04:38.412Z,2.57
2019-01-25T00:08:40.038Z,2.67
2019-01-25T00:12:41.054Z,1.83
2019-01-25T00:16:42.430Z,2.67
2019-01-25T00:20:43.614Z,2.63
2019-01-25T00:24:44.884Z,2.57
2019-01-25T00:28:46.956Z,3.20
2019-01-25T00:32:47.951Z,3.10
2019-01-25T00:36:48.893Z,3.13
2019-01-25T00:40:49.901Z,2.47
2019-01-25T00:44:50.882Z,2.53
2019-01-25T00:48:51.938Z,2.00
2019-01-25T00:52:52.962Z,2.70
2019-01-25T00:56:53.980Z,2.40
2019-01-25T01:00:54.970Z,2.17
2019-01-25T01:04:57.150Z,2.67
2019-01-25T01:08:58.649Z,2.57
2019-01-25T01:13:00.303Z,2.23
2019-01-25T01:17:01.764Z,1.80
2019-01-25T01:21:02.877Z,2.60
2019-01-25T01:25:04.387Z,2.67
2019-01-25T01:29:05.485Z,2.20
2019-01-25T01:33:07.189Z,2.07
2019-01-25T01:37:08.978Z,2.90
2019-01-25T01:41:10.235Z,2.40
2019-01-25T01:45:11.485Z,2.73
2019-01-25T01:49:13.901Z,2.90
2019-01-25T01:53:16.086Z,2.63
2019-01-25T01:57:17.800Z,2.93
2019-01-25T02:01:19.082Z,3.03
2019-01-25T02:05:21.023Z,2.90
2019-01-25T02:09:22.684Z,3.20
2019-01-25T02:13:23.654Z,3.23
2019-01-25T02:17:25.304Z,3.13
2019-01-25T02:21:26.272Z,3.70
2019-01-25T02:25:27.357Z,3.67
2019-01-25T02:29:28.802Z,4.50
2019-01-25T02:33:29.855Z,4.20
2019-01-25T02:37:30.842Z,6.13
2019-01-25T02:41:31.915Z,5.40
2019-01-25T02:45:32.910Z,5.27
2019-01-25T02:49:34.054Z,6.47
2019-01-25T02:53:35.028Z,6.77
2019-01-25T02:57:36.210Z,6.33
2019-01-25T03:01:37.247Z,7.30
2019-01-25T03:05:38.556Z,8.17
2019-01-25T03:09:39.578Z,7.83
2019-01-25T03:13:41.055Z,8.37
2019-01-25T03:17:42.052Z,8.50
2019-01-25T03:21:45.939Z,8.00
2019-01-25T03:25:47.438Z,8.07
2019-01-25T03:29:48.469Z,8.40
2019-01-25T03:33:49.475Z,9.53
2019-01-25T03:37:51.454Z,7.60
2019-01-25T03:41:52.660Z,7.50
2019-01-25T03:45:53.718Z,7.93
2019-01-25T03:49:54.928Z,7.17
2019-01-25T03:53:56.455Z,7.27
2019-01-25T03:57:57.948Z,7.60
2019-01-25T04:01:59.606Z,6.77
2019-01-25T04:06:00.703Z,7.80
2019-01-25T04:10:01.896Z,8.07
2019-01-25T04:14:03.378Z,6.93
2019-01-25T04:18:07.774Z,6.60
2019-01-25T04:22:09.030Z,7.53
2019-01-25T04:26:10.274Z,7.27
2019-01-25T04:30:14.575Z,7.67
2019-01-25T04:34:15.838Z,7.53
2019-01-25T04:38:17.448Z,7.67
2019-01-25T04:42:18.498Z,6.90
2019-01-25T04:46:20.032Z,7.43
2019-01-25T04:50:22.937Z,9.37
2019-01-25T04:54:23.885Z,7.20
2019-01-25T04:58:24.955Z,8.40
2019-01-25T05:02:25.947Z,8.80
2019-01-25T05:06:27.002Z,8.40
2019-01-25T05:10:28.069Z,8.20
2019-01-25T05:14:33.998Z,9.17
2019-01-25T05:18:34.967Z,8.07
2019-01-25T05:22:35.969Z,8.57
2019-01-25T05:26:36.949Z,8.57
2019-01-25T05:30:38.357Z,9.57
2019-01-25T05:34:39.248Z,8.80
2019-01-25T05:38:41.691Z,9.03
2019-01-25T05:42:42.776Z,8.30
2019-01-25T05:46:45.176Z,8.60
2019-01-25T05:50:46.216Z,8.13
2019-01-25T05:54:47.267Z,9.43
2019-01-25T05:58:48.345Z,8.50
2019-01-25T06:02:50.992Z,8.10
2019-01-25T06:06:51.996Z,9.43
2019-01-25T06:10:53.022Z,7.47
2019-01-25T06:14:53.992Z,8.00
2019-01-25T06:18:54.997Z,8.73
2019-01-25T06:22:58.483Z,8.00
2019-01-25T06:26:59.502Z,7.70
2019-01-25T06:31:00.414Z,8.07
2019-01-25T06:35:03.954Z,7.90
2019-01-25T06:39:06.996Z,6.60
2019-01-25T06:43:07.981Z,8.13
2019-01-25T06:47:09.098Z,7.83
2019-01-25T06:51:11.441Z,7.37
2019-01-25T06:55:12.423Z,7.63
2019-01-25T06:59:16.618Z,6.97
2019-01-25T07:03:17.554Z,8.37
2019-01-25T07:07:32.587Z,8.50
2019-01-25T07:11:33.536Z,8.23
2019-01-25T07:15:35.637Z,7.80
2019-01-25T07:19:37.856Z,7.43
2019-01-25T07:23:39.086Z,7.73
2019-01-25T07:27:40.062Z,7.23
2019-01-25T07:31:41.082Z,7.63
2019-01-25T07:35:42.133Z,7.87
2019-01-25T07:39:43.435Z,7.63
2019-01-25T07:43:44.407Z,7.43
2019-01-25T07:47:45.453Z,7.63
2019-01-25T07:51:46.567Z,7.50
2019-01-25T07:55:48.089Z,8.23
2019-01-25T07:59:49.160Z,7.40
2019-01-25T08:03:50.204Z,8.03
2019-01-25T08:07:51.183Z,8.47
2019-01-25T08:11:53.326Z,8.17
2019-01-25T08:15:54.562Z,9.50
2019-01-25T08:19:55.702Z,9.33
2019-01-25T08:23:56.688Z,9.10
2019-01-25T08:27:57.769Z,8.40
2019-01-25T08:31:58.794Z,9.57
2019-01-25T08:35:59.822Z,8.67
2019-01-25T08:40:00.938Z,9.40
2019-01-25T08:44:03.956Z,9.77
2019-01-25T08:48:04.990Z,8.00
2019-01-25T08:52:06.237Z,9.93
2019-01-25T08:56:07.449Z,8.80
2019-01-25T09:00:12.108Z,8.40
2019-01-25T09:04:13.370Z,9.33
2019-01-25T09:08:14.543Z,8.20
2019-01-25T09:12:23.081Z,8.43
2019-01-25T09:16:19.618Z,9.23
2019-01-25T09:20:21.821Z,8.30
2019-01-25T09:24:25.092Z,9.53
2019-01-25T09:28:26.091Z,8.30
2019-01-25T09:32:27.081Z,9.07
2019-01-25T09:36:29.388Z,9.53
2019-01-25T09:40:30.641Z,10.00
2019-01-25T09:44:31.644Z,7.90
2019-01-25T09:48:34.273Z,10.00
2019-01-25T09:52:35.237Z,7.73
2019-01-25T09:56:36.276Z,8.97
2019-01-25T10:01:01.697Z,9.30
2019-01-25T10:05:02.812Z,9.20
2019-01-25T10:09:05.574Z,9.33
2019-01-25T10:13:06.786Z,8.40
2019-01-25T10:17:07.758Z,9.60
2019-01-25T10:21:08.872Z,8.93
2019-01-25T10:25:10.682Z,9.53
2019-01-25T10:29:11.777Z,9.23
2019-01-25T10:33:12.711Z,9.17
2019-01-25T10:37:13.641Z,9.47
2019-01-25T10:41:14.587Z,8.87
2019-01-25T10:45:21.342Z,10.30
2019-01-25T10:49:22.301Z,9.83
2019-01-25T10:53:23.612Z,9.80
2019-01-25T10:57:24.561Z,9.60
2019-01-25T11:01:25.567Z,19.40
2019-01-25T11:05:26.817Z,11.67
2019-01-25T11:09:27.927Z,10.00
2019-01-25T11:13:28.887Z,9.73
2019-01-25T11:17:36.379Z,11.40
2019-01-25T11:21:37.375Z,10.67
2019-01-25T11:25:38.087Z,11.77
2019-01-25T11:29:39.067Z,12.53
2019-01-25T11:33:41.558Z,11.43
2019-01-25T11:37:42.548Z,11.73
2019-01-25T11:41:43.613Z,10.73
2019-01-25T11:45:44.812Z,11.37
2019-01-25T11:49:45.847Z,11.47
2019-01-25T11:53:47.102Z,12.53
2019-01-25T11:57:48.161Z,12.50
2019-01-25T12:01:49.052Z,13.67
2019-01-25T12:05:50.119Z,12.83
2019-01-25T12:09:51.084Z,11.77
2019-01-25T12:13:52.131Z,12.07
2019-01-25T12:17:53.061Z,12.03
2019-01-25T12:21:54.092Z,13.50
2019-01-25T12:25:55.008Z,12.13
2019-01-25T12:29:56.011Z,12.43
2019-01-25T12:33:56.981Z,12.67
2019-01-25T12:37:58.069Z,12.07
2019-01-25T12:41:59.327Z,11.10
2019-01-25T12:46:00.322Z,11.70
2019-01-25T12:50:01.304Z,9.83
2019-01-25T12:54:02.321Z,11.03
2019-01-25T12:58:03.477Z,13.33
2019-01-25T13:02:04.543Z,10.73
2019-01-25T13:06:05.861Z,13.83
2019-01-25T13:10:08.611Z,15.23
2019-01-25T13:14:09.562Z,14.50
2019-01-25T13:18:10.520Z,12.17
2019-01-25T13:22:11.441Z,12.27
2019-01-25T13:26:12.474Z,10.40
2019-01-25T13:30:17.227Z,10.43
2019-01-25T13:34:18.671Z,10.60
2019-01-25T13:38:19.736Z,10.57
2019-01-25T13:42:20.774Z,10.27
2019-01-25T13:46:21.796Z,11.63
2019-01-25T13:50:25.209Z,12.57
2019-01-25T13:54:28.831Z,12.70
2019-01-25T13:58:29.921Z,13.50
2019-01-25T14:02:31.226Z,10.60
2019-01-25T14:06:35.913Z,9.73
2019-01-25T14:10:38.068Z,11.27
2019-01-25T14:14:39.136Z,11.17
2019-01-25T14:18:44.851Z,11.73
2019-01-25T14:22:43.904Z,12.80
2019-01-25T14:26:45.049Z,13.13
2019-01-25T14:30:47.132Z,13.93
2019-01-25T14:34:48.822Z,14.63
2019-01-25T14:38:50.488Z,17.43
2019-01-25T14:42:51.941Z,15.37
2019-01-25T14:46:53.880Z,15.67
2019-01-25T14:50:55.169Z,14.93
2019-01-25T14:54:56.704Z,14.50
2019-01-25T14:58:59.225Z,14.97
2019-01-25T15:03:03.443Z,16.20
2019-01-25T15:07:04.420Z,15.00
2019-01-25T15:11:05.623Z,15.17
2019-01-25T15:15:09.089Z,16.27
2019-01-25T15:19:10.718Z,16.37
2019-01-25T15:23:12.199Z,14.27
2019-01-25T15:27:13.820Z,13.77
2019-01-25T15:31:14.990Z,15.13
2019-01-25T15:35:16.958Z,13.37
2019-01-25T15:39:17.974Z,10.27
2019-01-25T15:43:19.093Z,10.27
2019-01-25T15:47:20.600Z,9.83
2019-01-25T15:51:22.873Z,4.17
2019-01-25T15:55:25.050Z,9.03
2019-01-25T15:59:26.113Z,8.87
2019-01-25T16:03:28.119Z,6.57
2019-01-25T16:07:31.032Z,9.60
2019-01-25T16:11:32.338Z,9.63
2019-01-25T16:15:33.823Z,8.10
2019-01-25T16:19:35.653Z,7.97
2019-01-25T16:23:38.138Z,8.07
2019-01-25T16:27:39.346Z,4.37
2019-01-25T16:31:41.050Z,6.47
2019-01-25T16:35:42.585Z,7.10
2019-01-25T16:39:43.764Z,5.20
2019-01-25T16:43:45.370Z,6.17
2019-01-25T16:47:46.947Z,6.27
2019-01-25T16:51:47.977Z,6.27
2019-01-25T16:55:49.127Z,6.20
2019-01-25T16:59:50.131Z,6.03
2019-01-25T17:03:52.821Z,6.03
2019-01-25T17:07:55.544Z,5.27
2019-01-25T17:11:58.819Z,6.00
2019-01-25T17:16:01.031Z,6.07
2019-01-25T17:20:03.355Z,5.57
2019-01-25T17:24:04.605Z,3.47
2019-01-25T17:28:08.183Z,5.40
2019-01-25T17:32:10.061Z,6.40
2019-01-25T17:36:13.607Z,5.80
2019-01-25T17:40:18.116Z,5.37
2019-01-25T17:44:20.989Z,6.10
2019-01-25T17:48:23.928Z,6.10
2019-01-25T17:52:26.967Z,6.40
2019-01-25T17:56:29.297Z,7.10
2019-01-25T18:00:45.628Z,6.63
2019-01-25T18:04:48.055Z,4.83
2019-01-25T18:08:49.208Z,6.57
2019-01-25T18:12:52.047Z,6.43
2019-01-25T18:16:53.137Z,3.00
2019-01-25T18:20:54.131Z,5.47
2019-01-25T18:24:55.172Z,6.30
2019-01-25T18:29:14.541Z,5.17
2019-01-25T18:33:15.555Z,7.43
2019-01-25T18:37:16.602Z,7.97
2019-01-25T18:41:17.633Z,5.97
2019-01-25T18:45:18.642Z,7.03
2019-01-25T18:49:19.788Z,6.63
2019-01-25T18:53:21.931Z,6.10
2019-01-25T18:57:23.375Z,3.57
2019-01-25T19:01:24.372Z,3.67
2019-01-25T19:05:25.496Z,6.17
2019-01-25T19:09:26.526Z,7.47
2019-01-25T19:13:29.457Z,7.10
2019-01-25T19:17:30.456Z,5.97
2019-01-25T19:21:31.459Z,6.20
2019-01-25T19:25:32.464Z,5.57
2019-01-25T19:29:35.341Z,6.67
2019-01-25T19:33:36.311Z,5.53
2019-01-25T19:37:37.400Z,5.50
2019-01-25T19:41:38.447Z,5.67
2019-01-25T19:45:39.522Z,5.57
2019-01-25T19:49:40.489Z,5.87
2019-01-25T19:53:41.562Z,6.37
2019-01-25T19:57:42.702Z,5.57
2019-01-25T20:01:43.741Z,7.10
2019-01-25T20:05:46.121Z,6.63
2019-01-25T20:09:47.299Z,5.30
2019-01-25T20:13:48.530Z,5.03
2019-01-25T20:17:49.811Z,5.63
2019-01-25T20:21:50.893Z,6.27
2019-01-25T20:25:51.940Z,7.30
2019-01-25T20:29:52.932Z,5.63
2019-01-25T20:33:54.089Z,6.50
2019-01-25T20:37:55.058Z,5.93
2019-01-25T20:41:56.215Z,6.10
2019-01-25T20:45:57.166Z,5.07
2019-01-25T20:49:58.722Z,4.83
2019-01-25T20:54:00.231Z,6.27
2019-01-25T20:58:02.479Z,3.90
2019-01-25T21:02:03.480Z,5.53
2019-01-25T21:06:04.542Z,5.03
2019-01-25T21:10:06.886Z,5.80
2019-01-25T21:14:07.907Z,5.60
2019-01-25T21:18:08.925Z,5.40
2019-01-25T21:22:10.753Z,6.33
2019-01-25T21:26:12.263Z,6.03
2019-01-25T21:30:17.104Z,5.57
2019-01-25T21:34:18.544Z,5.67
2019-01-25T21:38:19.549Z,5.33
2019-01-25T21:42:22.158Z,6.10
2019-01-25T21:46:23.158Z,6.37
2019-01-25T21:50:27.562Z,6.70
2019-01-25T21:54:28.595Z,5.73
2019-01-25T21:58:30.504Z,5.60
2019-01-25T22:02:31.622Z,5.17
2019-01-25T22:06:33.313Z,5.20
2019-01-25T22:10:46.596Z,6.00
2019-01-25T22:14:47.765Z,5.43
2019-01-25T22:18:48.827Z,6.33
2019-01-25T22:22:50.223Z,5.60
2019-01-25T22:26:51.322Z,5.67
2019-01-25T22:30:53.598Z,6.13
2019-01-25T22:34:55.156Z,5.40
2019-01-25T22:38:56.153Z,5.93
2019-01-25T22:42:57.549Z,5.73
2019-01-25T22:46:58.752Z,4.93
2019-01-25T22:50:59.955Z,6.67
2019-01-25T22:55:01.182Z,4.73
2019-01-25T22:59:02.963Z,5.27
2019-01-25T23:03:04.761Z,5.77
2019-01-25T23:07:12.056Z,4.10
2019-01-25T23:11:14.027Z,4.70
2019-01-25T23:15:17.798Z,6.43
2019-01-25T23:19:19.205Z,6.97
2019-01-25T23:23:22.290Z,6.77
2019-01-25T23:27:23.263Z,5.80
2019-01-25T23:31:24.416Z,5.57
2019-01-25T23:35:25.409Z,6.40
2019-01-25T23:39:26.977Z,5.23
2019-01-25T23:43:27.949Z,5.13
2019-01-25T23:47:29.674Z,6.00
2019-01-25T23:51:30.793Z,5.80
2019-01-25T23:55:32.270Z,4.60
2019-01-25T23:59:34.222Z,5.60
